BQH weather

London Biggin Hill Airport
London, England, United Kingdom

Public forecast

Using degrees Celsius for public forecast. Weather courtesy of forecast.io.

Current aviation weather report (METAR) for London Biggin Hill Airport

Report is more than 2 hours old.

Retrieved 2019/10/13 20:20 UTC (4 hours ago):

EGKB 132020Z 22006KT CAVOK 10/08 Q1010

Aviation forecast (TAF) for London Biggin Hill Airport

Forecast is more than 12 hours old.

Retrieved 2019/07/13 18:09 UTC (3 months ago):

TAF EGKB 131706Z 1318/1422 03009KT 9999 SCT040 PROB30 TEMPO 1318/1320 8000 -SHRA